createdAt,value
2023-02-08T00:04:11.287Z,3.70
2023-02-08T00:09:11.148Z,4.00
2023-02-08T00:14:09.802Z,3.70
2023-02-08T00:19:08.297Z,3.70
2023-02-08T00:24:07.184Z,3.60
2023-02-08T00:29:07.074Z,3.60
2023-02-08T00:34:06.242Z,3.60
2023-02-08T00:39:05.021Z,3.50
2023-02-08T00:44:03.524Z,3.50
2023-02-08T00:49:04.238Z,3.40
2023-02-08T00:54:02.405Z,3.40
2023-02-08T00:59:00.907Z,3.40
2023-02-08T01:03:59.384Z,3.60
2023-02-08T01:08:59.264Z,3.40
2023-02-08T01:13:58.969Z,3.30
2023-02-08T01:19:00.444Z,3.30
2023-02-08T01:24:00.381Z,3.30
2023-02-08T01:29:02.282Z,3.20
2023-02-08T01:34:01.840Z,3.20
2023-02-08T01:39:01.577Z,3.20
2023-02-08T01:44:03.579Z,3.20
2023-02-08T01:49:06.284Z,3.10
2023-02-08T01:54:08.465Z,3.10
2023-02-08T01:59:12.837Z,3.10
2023-02-08T02:04:11.403Z,3.00
2023-02-08T02:09:18.378Z,3.30
2023-02-08T02:14:17.613Z,3.30
2023-02-08T02:19:28.810Z,3.00
2023-02-08T02:25:04.672Z,3.00
2023-02-08T02:30:41.092Z,2.90
2023-02-08T02:35:47.763Z,2.90
2023-02-08T02:40:55.963Z,3.20
2023-02-08T02:46:04.373Z,2.80
2023-02-08T02:51:10.551Z,2.80
2023-02-08T02:56:14.446Z,3.10
2023-02-08T03:01:13.256Z,2.80
2023-02-08T03:06:20.394Z,2.70
2023-02-08T03:11:22.014Z,2.70
2023-02-08T03:16:28.085Z,2.90
2023-02-08T03:21:38.718Z,2.70
2023-02-08T03:26:40.658Z,3.00
2023-02-08T03:31:44.531Z,2.70
2023-02-08T03:36:48.256Z,2.60
2023-02-08T03:41:49.648Z,2.90
2023-02-08T03:46:53.730Z,2.60
2023-02-08T03:51:56.046Z,2.60
2023-02-08T03:56:59.054Z,2.60
2023-02-08T04:02:01.169Z,2.70
2023-02-08T04:07:01.148Z,2.50
2023-02-08T04:11:59.663Z,2.50
2023-02-08T04:16:58.297Z,2.50
2023-02-08T04:21:56.780Z,2.70
2023-02-08T04:26:56.740Z,2.40
2023-02-08T04:31:55.270Z,2.40
2023-02-08T04:36:53.806Z,2.40
2023-02-08T04:41:52.299Z,2.40
2023-02-08T04:46:51.866Z,2.30
2023-02-08T04:51:50.377Z,2.30
2023-02-08T04:56:48.532Z,2.20
2023-02-08T05:01:47.107Z,2.20
2023-02-08T05:06:48.474Z,2.50
2023-02-08T05:11:47.121Z,2.10
2023-02-08T05:16:45.791Z,2.10
2023-02-08T05:21:44.320Z,2.10
2023-02-08T05:26:44.344Z,2.00
2023-02-08T05:31:43.309Z,2.00
2023-02-08T05:36:42.377Z,1.90
2023-02-08T05:41:41.011Z,2.20
2023-02-08T05:46:40.902Z,2.00
2023-02-08T05:51:39.653Z,1.90
2023-02-08T05:56:38.336Z,1.90
2023-02-08T06:01:37.045Z,1.80
2023-02-08T06:06:36.965Z,1.80
2023-02-08T06:11:36.824Z,1.80
2023-02-08T06:16:35.072Z,1.80
2023-02-08T06:21:34.308Z,1.80
2023-02-08T06:26:34.489Z,1.80
2023-02-08T06:31:33.058Z,1.70
2023-02-08T06:36:31.829Z,1.90
2023-02-08T06:41:30.319Z,1.70
2023-02-08T06:46:30.301Z,2.00
2023-02-08T06:51:29.300Z,1.80
2023-02-08T06:56:27.545Z,1.70
2023-02-08T07:01:27.211Z,1.70
2023-02-08T07:06:27.197Z,1.70
2023-02-08T07:11:25.882Z,1.60
2023-02-08T07:16:24.959Z,1.60
2023-02-08T07:21:23.533Z,1.60
2023-02-08T07:26:23.421Z,1.70
2023-02-08T07:31:21.914Z,1.90
2023-02-08T07:36:21.180Z,1.70
2023-02-08T07:41:19.370Z,2.00
2023-02-08T07:46:21.541Z,1.90
2023-02-08T07:51:20.379Z,1.80
2023-02-08T07:56:19.514Z,1.90
2023-02-08T08:01:22.644Z,1.90
2023-02-08T08:06:22.349Z,1.90
2023-02-08T08:11:21.800Z,2.30
2023-02-08T08:16:22.055Z,2.10
2023-02-08T08:21:20.335Z,2.10
2023-02-08T08:26:20.389Z,2.20
2023-02-08T08:31:21.542Z,2.70
2023-02-08T08:36:22.133Z,2.60
2023-02-08T08:41:22.274Z,2.70
2023-02-08T08:46:21.240Z,2.50
2023-02-08T08:51:21.278Z,2.60
2023-02-08T08:56:19.452Z,2.70
2023-02-08T09:01:17.999Z,2.80
2023-02-08T09:06:16.657Z,2.80
2023-02-08T09:11:17.788Z,3.10
2023-02-08T09:16:18.672Z,3.30
2023-02-08T09:21:20.462Z,3.20
2023-02-08T09:26:21.778Z,3.30
2023-02-08T09:31:21.939Z,3.40
2023-02-08T09:36:21.957Z,3.70
2023-02-08T09:41:38.850Z,3.60
2023-02-08T09:46:41.135Z,4.00
2023-02-08T09:58:36.085Z,4.00
2023-02-08T10:03:37.602Z,4.20
2023-02-08T10:08:37.291Z,4.30
2023-02-08T10:13:54.902Z,4.40
2023-02-08T10:19:02.901Z,4.80
2023-02-08T10:25:10.398Z,4.80
2023-02-08T10:30:29.680Z,4.80
2023-02-08T10:35:35.314Z,4.90
2023-02-08T10:40:39.298Z,5.00
2023-02-08T10:45:46.877Z,5.10
2023-02-08T10:50:47.840Z,5.30
2023-02-08T10:55:48.871Z,5.50
2023-02-08T11:00:50.047Z,5.70
2023-02-08T11:05:49.375Z,5.60
2023-02-08T11:10:58.650Z,6.10
2023-02-08T11:16:01.049Z,6.20
2023-02-08T11:21:02.155Z,6.30
2023-02-08T11:26:18.512Z,6.10
2023-02-08T11:31:21.176Z,6.20
2023-02-08T11:36:20.628Z,6.20
2023-02-08T11:41:21.242Z,6.30
2023-02-08T11:46:24.656Z,6.30
2023-02-08T11:51:30.233Z,6.40
2023-02-08T11:56:31.464Z,6.70
2023-02-08T12:01:33.961Z,6.50
2023-02-08T12:07:00.702Z,6.50
2023-02-08T12:12:07.513Z,6.60
2023-02-08T12:17:26.707Z,6.60
2023-02-08T12:22:27.454Z,6.90
2023-02-08T12:27:40.703Z,6.70
2023-02-08T12:32:58.934Z,7.10
2023-02-08T12:38:21.422Z,6.80
2023-02-08T12:43:33.565Z,6.70
2023-02-08T12:48:58.462Z,7.10
2023-02-08T12:53:59.817Z,6.80
2023-02-08T12:59:13.084Z,6.90
2023-02-08T13:04:16.900Z,6.90
2023-02-08T13:09:22.182Z,6.90
2023-02-08T13:14:30.672Z,6.90
2023-02-08T13:19:34.604Z,6.90
2023-02-08T13:24:37.792Z,7.00
2023-02-08T13:29:37.732Z,7.10
2023-02-08T13:34:42.504Z,7.10
2023-02-08T13:39:43.129Z,7.50
2023-02-08T13:44:42.428Z,7.10
2023-02-08T13:49:58.858Z,7.20
2023-02-08T13:55:27.061Z,7.30
2023-02-08T14:00:29.012Z,7.40
2023-02-08T14:05:46.272Z,7.10
2023-02-08T14:10:51.722Z,7.00
2023-02-08T14:16:25.120Z,7.10
2023-02-08T14:21:35.740Z,7.10
2023-02-08T14:26:36.813Z,7.30
2023-02-08T14:31:42.058Z,7.10
2023-02-08T14:36:42.567Z,7.10
2023-02-08T14:42:01.621Z,7.10
2023-02-08T14:47:00.246Z,7.20
2023-02-08T14:52:06.872Z,7.10
2023-02-08T14:57:09.102Z,7.20
2023-02-08T15:02:16.863Z,7.10
2023-02-08T15:07:33.672Z,7.40
2023-02-08T15:12:35.357Z,7.40
2023-02-08T15:17:36.859Z,7.20
2023-02-08T15:22:40.263Z,7.20
2023-02-08T15:27:39.140Z,7.10
2023-02-08T15:32:37.305Z,7.10
2023-02-08T15:37:37.542Z,7.10
2023-02-08T15:42:35.933Z,7.00
2023-02-08T15:47:36.656Z,7.00
2023-02-08T15:52:38.663Z,6.90
2023-02-08T15:57:44.382Z,7.00
2023-02-08T16:02:43.675Z,6.90
2023-02-08T16:07:46.477Z,7.20
2023-02-08T16:12:45.082Z,6.80
2023-02-08T16:17:46.524Z,7.10
2023-02-08T16:29:41.486Z,6.70
2023-02-08T16:34:40.993Z,6.80
2023-02-08T16:39:51.910Z,6.80
2023-02-08T16:45:18.396Z,6.70
2023-02-08T16:50:19.144Z,6.70
2023-02-08T16:55:20.011Z,6.40
2023-02-08T17:00:24.103Z,6.40
2023-02-08T17:05:24.864Z,6.30
2023-02-08T17:10:28.722Z,6.20
2023-02-08T17:15:29.904Z,6.20
2023-02-08T17:20:30.217Z,6.40
2023-02-08T17:25:29.577Z,6.20
2023-02-08T17:30:32.125Z,6.40
2023-02-08T17:35:31.308Z,6.00
2023-02-08T17:40:32.856Z,6.00
2023-02-08T17:45:32.698Z,5.90
2023-02-08T17:50:31.234Z,5.90
2023-02-08T17:55:29.749Z,5.90
2023-02-08T18:00:28.535Z,5.90
2023-02-08T18:05:29.896Z,5.80
2023-02-08T18:10:28.657Z,5.80
2023-02-08T18:15:27.252Z,5.80
2023-02-08T18:20:26.893Z,6.00
2023-02-08T18:25:25.573Z,5.60
2023-02-08T18:30:25.910Z,5.90
2023-02-08T18:35:24.472Z,5.60
2023-02-08T18:40:24.438Z,5.90
2023-02-08T18:45:23.358Z,5.60
2023-02-08T18:50:21.887Z,5.70
2023-02-08T18:55:20.490Z,5.90
2023-02-08T19:00:20.942Z,5.50
2023-02-08T19:05:20.125Z,5.40
2023-02-08T19:10:18.913Z,5.30
2023-02-08T19:15:17.528Z,5.20
2023-02-08T19:20:17.823Z,5.20
2023-02-08T19:25:16.613Z,5.20
2023-02-08T19:30:16.215Z,5.10
2023-02-08T19:35:14.777Z,5.10
2023-02-08T19:40:14.858Z,5.10
2023-02-08T19:45:13.695Z,5.10
2023-02-08T19:50:12.175Z,5.10
2023-02-08T19:55:10.817Z,5.00
2023-02-08T20:00:23.032Z,5.00
2023-02-08T20:05:22.423Z,5.00
2023-02-08T20:10:20.936Z,5.20
2023-02-08T20:15:20.763Z,5.10
2023-02-08T20:20:20.107Z,5.00
2023-02-08T20:25:18.657Z,4.90
2023-02-08T20:30:17.884Z,4.90
2023-02-08T20:35:18.369Z,4.90
2023-02-08T20:40:17.700Z,4.90
2023-02-08T20:45:16.658Z,4.90
2023-02-08T20:50:19.101Z,4.80
2023-02-08T20:55:19.730Z,4.90
2023-02-08T21:00:18.363Z,4.90
2023-02-08T21:05:16.865Z,4.90
2023-02-08T21:10:15.642Z,4.90
2023-02-08T21:15:15.536Z,4.80
2023-02-08T21:20:15.393Z,4.80
2023-02-08T21:25:13.918Z,4.80
2023-02-08T21:30:14.188Z,4.80
2023-02-08T21:35:12.308Z,4.80
2023-02-08T21:40:11.456Z,4.70
2023-02-08T21:45:10.367Z,4.70
2023-02-08T21:50:29.231Z,4.70
2023-02-08T21:55:27.350Z,4.70
2023-02-08T22:00:25.721Z,4.70
2023-02-08T22:05:42.891Z,4.60
2023-02-08T22:10:50.149Z,4.50
2023-02-08T22:15:55.484Z,4.50
2023-02-08T22:20:55.930Z,4.50
2023-02-08T22:25:54.456Z,4.40
2023-02-08T22:30:53.053Z,4.40
2023-02-08T22:35:51.726Z,4.40
2023-02-08T22:40:51.352Z,4.30
2023-02-08T22:45:58.708Z,4.30
2023-02-08T22:50:57.520Z,4.30
2023-02-08T22:55:58.622Z,4.50
2023-02-08T23:00:57.471Z,4.20
2023-02-08T23:05:56.025Z,4.20
2023-02-08T23:11:01.513Z,4.20
2023-02-08T23:16:00.281Z,4.20
2023-02-08T23:20:58.446Z,4.30
2023-02-08T23:25:57.233Z,4.10
2023-02-08T23:30:57.112Z,4.10
2023-02-08T23:35:55.596Z,4.10
2023-02-08T23:40:54.054Z,4.10
2023-02-08T23:45:52.490Z,4.00
2023-02-08T23:50:59.633Z,4.00
2023-02-08T23:56:08.370Z,4.00
